createdAt,value
2019-03-28T00:00:56.885Z,1018.21
2019-03-28T00:01:56.871Z,1018.25
2019-03-28T00:02:56.866Z,1018.26
2019-03-28T00:03:56.853Z,1018.23
2019-03-28T00:04:56.856Z,1018.22
2019-03-28T00:05:56.826Z,1018.24
2019-03-28T00:06:56.816Z,1018.14
2019-03-28T00:07:56.806Z,1018.19
2019-03-28T00:08:56.792Z,1018.18
2019-03-28T00:09:56.808Z,1018.16
2019-03-28T00:10:56.770Z,1018.19
2019-03-28T00:11:56.758Z,1018.12
2019-03-28T00:12:56.750Z,1018.19
2019-03-28T00:13:56.735Z,1018.20
2019-03-28T00:14:56.725Z,1018.18
2019-03-28T00:15:56.729Z,1018.18
2019-03-28T00:16:56.706Z,1018.17
2019-03-28T00:17:56.691Z,1018.16
2019-03-28T00:18:57.577Z,1018.15
2019-03-28T00:19:56.667Z,1018.12
2019-03-28T00:20:56.671Z,1018.16
2019-03-28T00:21:56.646Z,1018.19
2019-03-28T00:22:56.634Z,1018.14
2019-03-28T00:23:57.241Z,1018.17
2019-03-28T00:24:56.618Z,1018.13
2019-03-28T00:25:56.617Z,1018.15
2019-03-28T00:26:56.587Z,1018.13
2019-03-28T00:27:56.578Z,1018.17
2019-03-28T00:28:56.567Z,1018.17
2019-03-28T00:29:56.553Z,1018.13
2019-03-28T00:30:56.570Z,1018.16
2019-03-28T00:31:56.617Z,1018.14
2019-03-28T00:32:56.521Z,1018.17
2019-03-28T00:33:56.509Z,1018.13
2019-03-28T00:34:56.497Z,1018.19
2019-03-28T00:35:56.486Z,1018.19
2019-03-28T00:36:56.498Z,1018.16
2019-03-28T00:37:56.468Z,1018.15
2019-03-28T00:38:56.453Z,1018.13
2019-03-28T00:39:56.444Z,1018.12
2019-03-28T00:40:56.428Z,1018.14
2019-03-28T00:41:56.448Z,1018.11
2019-03-28T00:42:56.406Z,1018.12
2019-03-28T00:43:56.397Z,1018.10
2019-03-28T00:44:56.383Z,1018.12
2019-03-28T00:45:56.424Z,1018.10
2019-03-28T00:46:56.361Z,1018.10
2019-03-28T00:47:56.364Z,1018.07
2019-03-28T00:48:56.338Z,1018.06
2019-03-28T00:49:56.328Z,1018.08
2019-03-28T00:50:56.314Z,1018.14
2019-03-28T00:51:56.310Z,1018.09
2019-03-28T00:52:56.310Z,1018.06
2019-03-28T00:53:56.299Z,1018.11
2019-03-28T00:54:56.273Z,1018.05
2019-03-28T00:55:56.258Z,1018.08
2019-03-28T00:56:56.256Z,1018.10
2019-03-28T00:57:56.266Z,1018.08
2019-03-28T00:58:56.227Z,1018.14
2019-03-28T00:59:56.213Z,1018.12
2019-03-28T01:00:56.201Z,1018.10
2019-03-28T01:01:56.222Z,1018.11
2019-03-28T01:02:56.178Z,1018.11
2019-03-28T01:03:56.185Z,1018.11
2019-03-28T01:04:56.157Z,1018.07
2019-03-28T01:05:56.144Z,1018.06
2019-03-28T01:06:56.164Z,1018.04
2019-03-28T01:07:56.122Z,1018.02
2019-03-28T01:08:56.138Z,1018.08
2019-03-28T01:09:56.102Z,1017.99
2019-03-28T01:10:56.088Z,1017.97
2019-03-28T01:11:56.077Z,1017.97
2019-03-28T01:12:56.070Z,1017.99
2019-03-28T01:13:56.054Z,1018.01
2019-03-28T01:14:56.059Z,1018.05
2019-03-28T01:15:56.032Z,1017.99
2019-03-28T01:16:56.026Z,1018.03
2019-03-28T01:17:56.009Z,1018.01
2019-03-28T01:18:56.001Z,1017.98
2019-03-28T01:19:56.002Z,1018.00
2019-03-28T01:20:55.974Z,1017.98
2019-03-28T01:21:55.964Z,1018.01
2019-03-28T01:22:56.270Z,1018.00
2019-03-28T01:23:55.941Z,1018.00
2019-03-28T01:24:57.848Z,1018.03
2019-03-28T01:25:55.919Z,1018.00
2019-03-28T01:26:57.450Z,1018.00
2019-03-28T01:27:55.897Z,1017.93
2019-03-28T01:28:55.882Z,1018.01
2019-03-28T01:29:55.872Z,1017.95
2019-03-28T01:30:55.875Z,1017.97
2019-03-28T01:31:55.854Z,1017.93
2019-03-28T01:32:55.838Z,1017.95
2019-03-28T01:33:55.825Z,1017.97
2019-03-28T01:34:55.816Z,1017.99
2019-03-28T01:35:55.819Z,1017.97
2019-03-28T01:36:55.791Z,1017.95
2019-03-28T01:37:55.785Z,1017.91
2019-03-28T01:38:55.768Z,1017.91
2019-03-28T01:39:55.758Z,1017.92
2019-03-28T01:40:55.773Z,1017.92
2019-03-28T01:41:55.735Z,1017.92
2019-03-28T01:42:56.120Z,1017.92
2019-03-28T01:43:55.712Z,1017.93
2019-03-28T01:44:55.702Z,1017.95
2019-03-28T01:45:55.691Z,1017.95
2019-03-28T01:46:55.697Z,1017.91
2019-03-28T01:47:55.668Z,1017.86
2019-03-28T01:48:55.655Z,1017.90
2019-03-28T01:49:55.644Z,1017.89
2019-03-28T01:50:55.636Z,1017.92
2019-03-28T01:51:56.178Z,1017.89
2019-03-28T01:52:55.615Z,1017.89
2019-03-28T01:53:55.599Z,1017.89
2019-03-28T01:54:55.593Z,1017.93
2019-03-28T01:55:55.576Z,1017.84
2019-03-28T01:56:55.565Z,1017.84
2019-03-28T01:57:55.569Z,1017.89
2019-03-28T01:58:55.543Z,1017.89
2019-03-28T01:59:55.532Z,1017.92
2019-03-28T02:00:55.524Z,1017.87
2019-03-28T02:01:55.509Z,1017.91
2019-03-28T02:02:55.512Z,1017.89
2019-03-28T02:03:55.487Z,1017.90
2019-03-28T02:04:55.475Z,1017.86
2019-03-28T02:05:55.463Z,1017.91
2019-03-28T02:06:55.451Z,1017.85
2019-03-28T02:07:55.471Z,1017.90
2019-03-28T02:08:55.430Z,1017.83
2019-03-28T02:09:55.419Z,1017.88
2019-03-28T02:10:55.405Z,1017.91
2019-03-28T02:11:55.397Z,1017.84
2019-03-28T02:12:56.201Z,1017.89
2019-03-28T02:13:55.389Z,1017.89
2019-03-28T02:14:55.361Z,1017.89
2019-03-28T02:15:55.517Z,1017.91
2019-03-28T02:16:55.337Z,1017.91
2019-03-28T02:17:55.325Z,1017.94
2019-03-28T02:18:55.342Z,1017.94
2019-03-28T02:19:55.304Z,1017.93
2019-03-28T02:20:55.295Z,1017.93
2019-03-28T02:21:55.281Z,1017.95
2019-03-28T02:22:55.269Z,1017.92
2019-03-28T02:23:55.263Z,1017.94
2019-03-28T02:24:55.266Z,1017.94
2019-03-28T02:25:55.238Z,1017.91
2019-03-28T02:26:55.223Z,1017.95
2019-03-28T02:27:55.212Z,1017.91
2019-03-28T02:28:55.202Z,1017.91
2019-03-28T02:29:55.208Z,1017.95
2019-03-28T02:30:55.195Z,1017.91
2019-03-28T02:31:55.171Z,1017.98
2019-03-28T02:32:55.158Z,1017.91
2019-03-28T02:33:55.144Z,1017.91
2019-03-28T02:34:55.153Z,1017.95
2019-03-28T02:35:55.124Z,1017.91
2019-03-28T02:36:55.114Z,1017.92
2019-03-28T02:37:55.104Z,1017.94
2019-03-28T02:38:55.093Z,1017.92
2019-03-28T02:39:55.111Z,1017.95
2019-03-28T02:40:55.068Z,1017.93
2019-03-28T02:41:55.055Z,1017.94
2019-03-28T02:42:55.048Z,1017.94
2019-03-28T02:43:55.034Z,1017.97
2019-03-28T02:45:04.108Z,1018.00
2019-03-28T02:46:03.298Z,1017.95
2019-03-28T02:47:03.337Z,1017.97
2019-03-28T02:48:04.374Z,1017.95
2019-03-28T02:49:04.923Z,1018.00
2019-03-28T02:50:03.466Z,1018.00
2019-03-28T02:51:03.931Z,1017.99
2019-03-28T02:52:03.040Z,1018.02
2019-03-28T02:52:54.931Z,1017.99
2019-03-28T02:53:54.921Z,1018.00
2019-03-28T02:54:54.910Z,1017.99
2019-03-28T02:55:54.925Z,1018.01
2019-03-28T02:56:54.885Z,1018.03
2019-03-28T02:57:54.874Z,1017.98
2019-03-28T02:58:54.864Z,1018.00
2019-03-28T02:59:54.982Z,1018.02
2019-03-28T03:00:54.844Z,1017.99
2019-03-28T03:01:54.850Z,1017.98
2019-03-28T03:02:54.821Z,1017.98
2019-03-28T03:03:54.808Z,1018.00
2019-03-28T03:04:54.795Z,1017.98
2019-03-28T03:05:54.787Z,1018.01
2019-03-28T03:06:54.789Z,1017.98
2019-03-28T03:07:54.763Z,1017.97
2019-03-28T03:08:54.751Z,1017.99
2019-03-28T03:09:54.744Z,1017.96
2019-03-28T03:10:54.728Z,1018.01
2019-03-28T03:11:54.749Z,1017.95
2019-03-28T03:12:54.734Z,1017.97
2019-03-28T03:13:54.695Z,1017.98
2019-03-28T03:14:54.688Z,1017.97
2019-03-28T03:15:54.674Z,1017.95
2019-03-28T03:16:54.665Z,1017.97
2019-03-28T03:17:54.668Z,1017.99
2019-03-28T03:18:54.639Z,1017.95
2019-03-28T03:19:54.628Z,1017.98
2019-03-28T03:20:54.619Z,1017.96
2019-03-28T03:21:54.607Z,1017.98
2019-03-28T03:22:54.855Z,1018.02
2019-03-28T03:23:54.585Z,1018.01
2019-03-28T03:24:54.578Z,1017.97
2019-03-28T03:25:54.561Z,1018.03
2019-03-28T03:26:54.550Z,1018.02
2019-03-28T03:27:58.399Z,1018.05
2019-03-28T03:28:54.545Z,1018.02
2019-03-28T03:29:54.523Z,1018.06
2019-03-28T03:30:54.506Z,1018.05
2019-03-28T03:31:54.494Z,1018.05
2019-03-28T03:32:54.487Z,1018.08
2019-03-28T03:33:54.504Z,1018.04
2019-03-28T03:34:54.463Z,1018.08
2019-03-28T03:35:54.452Z,1018.09
2019-03-28T03:36:54.440Z,1018.14
2019-03-28T03:37:55.851Z,1018.14
2019-03-28T03:38:54.449Z,1018.14
2019-03-28T03:39:54.407Z,1018.14
2019-03-28T03:40:54.876Z,1018.13
2019-03-28T03:41:54.384Z,1018.14
2019-03-28T03:42:54.370Z,1018.17
2019-03-28T03:43:54.363Z,1018.14
2019-03-28T03:44:54.365Z,1018.16
2019-03-28T03:45:54.335Z,1018.13
2019-03-28T03:46:54.325Z,1018.20
2019-03-28T03:47:54.320Z,1018.18
2019-03-28T03:48:54.304Z,1018.17
2019-03-28T03:49:54.304Z,1018.20
2019-03-28T03:50:54.292Z,1018.18
2019-03-28T03:51:54.272Z,1018.19
2019-03-28T03:52:54.257Z,1018.23
2019-03-28T03:53:54.264Z,1018.21
2019-03-28T03:54:54.235Z,1018.20
2019-03-28T03:55:54.225Z,1018.25
2019-03-28T03:56:54.212Z,1018.23
2019-03-28T03:57:54.202Z,1018.28
2019-03-28T03:58:54.221Z,1018.27
2019-03-28T03:59:54.178Z,1018.26
2019-03-28T04:00:54.406Z,1018.26
2019-03-28T04:01:54.161Z,1018.31
2019-03-28T04:02:54.148Z,1018.25
2019-03-28T04:03:54.139Z,1018.26
2019-03-28T04:04:56.624Z,1018.26
2019-03-28T04:05:54.113Z,1018.25
2019-03-28T04:06:54.103Z,1018.27
2019-03-28T04:07:54.093Z,1018.26
2019-03-28T04:08:54.134Z,1018.20
2019-03-28T04:09:54.071Z,1018.21
2019-03-28T04:10:54.098Z,1018.24
2019-03-28T04:11:54.045Z,1018.27
2019-03-28T04:12:54.033Z,1018.27
2019-03-28T04:13:54.025Z,1018.28
2019-03-28T04:14:54.015Z,1018.32
2019-03-28T04:15:54.004Z,1018.27
2019-03-28T04:16:54.006Z,1018.30
2019-03-28T04:17:53.997Z,1018.33
2019-03-28T04:18:53.972Z,1018.31
2019-03-28T04:19:53.960Z,1018.38
2019-03-28T04:20:53.948Z,1018.37
2019-03-28T04:21:53.966Z,1018.35
2019-03-28T04:22:53.922Z,1018.39
2019-03-28T04:23:53.914Z,1018.32
2019-03-28T04:24:53.901Z,1018.38
2019-03-28T04:25:53.889Z,1018.39
2019-03-28T04:26:53.879Z,1018.37
2019-03-28T04:27:53.895Z,1018.36
2019-03-28T04:28:53.858Z,1018.38
2019-03-28T04:29:53.843Z,1018.35
2019-03-28T04:30:53.837Z,1018.40
2019-03-28T04:31:53.824Z,1018.39
2019-03-28T04:32:53.811Z,1018.39
2019-03-28T04:33:53.818Z,1018.37
2019-03-28T04:34:53.790Z,1018.39
2019-03-28T04:35:53.781Z,1018.40
2019-03-28T04:36:53.772Z,1018.40
2019-03-28T04:37:53.756Z,1018.39
2019-03-28T04:38:53.771Z,1018.36
2019-03-28T04:39:53.732Z,1018.40
2019-03-28T04:40:53.725Z,1018.39
2019-03-28T04:41:53.714Z,1018.37
2019-03-28T04:42:53.703Z,1018.38
2019-03-28T04:43:55.957Z,1018.42
2019-03-28T04:44:53.704Z,1018.43
2019-03-28T04:45:53.668Z,1018.51
2019-03-28T04:46:53.654Z,1018.48
2019-03-28T04:47:53.642Z,1018.49
2019-03-28T04:48:53.631Z,1018.42
2019-03-28T04:49:53.624Z,1018.44
2019-03-28T04:50:53.635Z,1018.48
2019-03-28T04:51:53.610Z,1018.45
2019-03-28T04:52:53.605Z,1018.44
2019-03-28T04:53:56.198Z,1018.47
2019-03-28T04:54:53.564Z,1018.42
2019-03-28T04:55:53.554Z,1018.50
2019-03-28T04:56:53.560Z,1018.50
2019-03-28T04:57:53.531Z,1018.52
2019-03-28T04:58:53.518Z,1018.47
2019-03-28T04:59:53.507Z,1018.54
2019-03-28T05:00:53.533Z,1018.46
2019-03-28T05:02:02.531Z,1018.54
2019-03-28T05:02:54.474Z,1018.53
2019-03-28T05:03:53.465Z,1018.45
2019-03-28T05:04:53.452Z,1018.49
2019-03-28T05:05:53.440Z,1018.54
2019-03-28T05:06:53.489Z,1018.49
2019-03-28T05:07:53.418Z,1018.50
2019-03-28T05:08:53.410Z,1018.53
2019-03-28T05:09:53.397Z,1018.55
2019-03-28T05:10:53.386Z,1018.54
2019-03-28T05:11:53.375Z,1018.57
2019-03-28T05:12:53.396Z,1018.53
2019-03-28T05:13:53.356Z,1018.57
2019-03-28T05:14:53.341Z,1018.57
2019-03-28T05:15:53.328Z,1018.58
2019-03-28T05:16:53.321Z,1018.62
2019-03-28T05:17:53.307Z,1018.56
2019-03-28T05:18:53.309Z,1018.54
2019-03-28T05:19:53.285Z,1018.55
2019-03-28T05:20:53.272Z,1018.57
2019-03-28T05:21:53.261Z,1018.54
2019-03-28T05:22:53.249Z,1018.63
2019-03-28T05:23:53.259Z,1018.63
2019-03-28T05:24:53.229Z,1018.61
2019-03-28T05:25:53.215Z,1018.60
2019-03-28T05:26:53.205Z,1018.64
2019-03-28T05:27:53.194Z,1018.63
2019-03-28T05:28:57.683Z,1018.64
2019-03-28T05:29:53.171Z,1018.64
2019-03-28T05:30:53.161Z,1018.64
2019-03-28T05:31:53.149Z,1018.62
2019-03-28T05:32:53.140Z,1018.65
2019-03-28T05:33:53.128Z,1018.61
2019-03-28T05:34:53.144Z,1018.66
2019-03-28T05:35:53.105Z,1018.66
2019-03-28T05:36:53.094Z,1018.67
2019-03-28T05:37:53.081Z,1018.65
2019-03-28T05:38:53.073Z,1018.66
2019-03-28T05:39:53.059Z,1018.70
2019-03-28T05:40:53.075Z,1018.73
2019-03-28T05:41:53.036Z,1018.71
2019-03-28T05:42:53.027Z,1018.66
2019-03-28T05:43:53.016Z,1018.72
2019-03-28T05:44:53.007Z,1018.74
2019-03-28T05:45:52.993Z,1018.73
2019-03-28T05:46:53.012Z,1018.74
2019-03-28T05:47:52.970Z,1018.74
2019-03-28T05:48:52.958Z,1018.75
2019-03-28T05:49:52.947Z,1018.72
2019-03-28T05:50:52.935Z,1018.74
2019-03-28T05:51:52.925Z,1018.77
2019-03-28T05:52:52.944Z,1018.75
2019-03-28T05:53:52.905Z,1018.75
2019-03-28T05:54:52.890Z,1018.76
2019-03-28T05:55:52.880Z,1018.75
2019-03-28T05:56:52.876Z,1018.78
2019-03-28T05:57:52.858Z,1018.75
2019-03-28T05:58:52.900Z,1018.78
2019-03-28T05:59:52.835Z,1018.78
2019-03-28T06:00:52.826Z,1018.78
2019-03-28T06:01:52.812Z,1018.82
2019-03-28T06:02:52.803Z,1018.83
2019-03-28T06:03:52.795Z,1018.82
2019-03-28T06:04:52.810Z,1018.82
2019-03-28T06:05:52.767Z,1018.81
2019-03-28T06:06:52.757Z,1018.86
2019-03-28T06:07:52.746Z,1018.86
2019-03-28T06:08:53.364Z,1018.85
2019-03-28T06:09:52.722Z,1018.87
2019-03-28T06:10:52.739Z,1018.91
2019-03-28T06:11:53.013Z,1018.87
2019-03-28T06:12:52.690Z,1018.89
2019-03-28T06:13:52.680Z,1018.94
2019-03-28T06:14:52.670Z,1018.92
2019-03-28T06:15:52.655Z,1018.93
2019-03-28T06:16:52.672Z,1018.94
2019-03-28T06:17:52.633Z,1018.96
2019-03-28T06:18:52.623Z,1018.98
2019-03-28T06:19:52.613Z,1018.95
2019-03-28T06:20:52.600Z,1018.94
2019-03-28T06:21:52.594Z,1018.96
2019-03-28T06:22:52.611Z,1018.95
2019-03-28T06:23:52.566Z,1018.96
2019-03-28T06:24:52.555Z,1018.98
2019-03-28T06:25:52.545Z,1019.01
2019-03-28T06:26:52.533Z,1018.96
2019-03-28T06:27:52.523Z,1019.00
2019-03-28T06:28:52.543Z,1019.03
2019-03-28T06:29:52.690Z,1019.03
2019-03-28T06:30:52.490Z,1018.98
2019-03-28T06:31:55.677Z,1018.98
2019-03-28T06:32:52.469Z,1019.04
2019-03-28T06:33:52.465Z,1019.03
2019-03-28T06:34:52.518Z,1019.00
2019-03-28T06:35:52.433Z,1019.04
2019-03-28T06:36:52.423Z,1019.05
2019-03-28T06:37:52.409Z,1019.04
2019-03-28T06:38:52.400Z,1019.07
2019-03-28T06:39:52.392Z,1019.06
2019-03-28T06:40:52.395Z,1019.08
2019-03-28T06:41:52.364Z,1019.06
2019-03-28T06:42:52.354Z,1019.06
2019-03-28T06:43:52.343Z,1019.06
2019-03-28T06:44:52.333Z,1019.05
2019-03-28T06:45:52.347Z,1019.09
2019-03-28T06:46:52.309Z,1019.06
2019-03-28T06:47:52.377Z,1019.08
2019-03-28T06:48:52.289Z,1019.05
2019-03-28T06:49:52.275Z,1019.05
2019-03-28T06:50:52.264Z,1019.09
2019-03-28T06:51:52.270Z,1019.09
2019-03-28T06:52:52.241Z,1019.11
2019-03-28T06:53:52.238Z,1019.10
2019-03-28T06:54:52.218Z,1019.07
2019-03-28T06:55:52.233Z,1019.09
2019-03-28T06:56:52.198Z,1019.07
2019-03-28T06:57:52.186Z,1019.05
2019-03-28T06:58:52.173Z,1019.02
2019-03-28T06:59:52.162Z,1019.03
2019-03-28T07:00:52.151Z,1019.03
2019-03-28T07:01:52.302Z,1019.02
2019-03-28T07:02:52.129Z,1019.08
2019-03-28T07:03:52.118Z,1019.07
2019-03-28T07:04:52.106Z,1019.06
2019-03-28T07:05:52.096Z,1019.09
2019-03-28T07:06:52.107Z,1019.09
2019-03-28T07:07:52.077Z,1019.06
2019-03-28T07:08:52.062Z,1019.09
2019-03-28T07:09:52.052Z,1019.07
2019-03-28T07:10:52.065Z,1019.06
2019-03-28T07:11:52.029Z,1019.13
2019-03-28T07:12:52.018Z,1019.14
2019-03-28T07:13:52.005Z,1019.13
2019-03-28T07:14:51.996Z,1019.15
2019-03-28T07:15:51.981Z,1019.15
2019-03-28T07:16:52.000Z,1019.15
2019-03-28T07:17:51.973Z,1019.14
2019-03-28T07:18:51.949Z,1019.11
2019-03-28T07:19:51.942Z,1019.20
2019-03-28T07:20:52.434Z,1019.23
2019-03-28T07:21:51.915Z,1019.14
2019-03-28T07:22:51.934Z,1019.17
2019-03-28T07:23:51.894Z,1019.22
2019-03-28T07:24:51.887Z,1019.21
2019-03-28T07:25:51.869Z,1019.22
2019-03-28T07:26:51.856Z,1019.21
2019-03-28T07:27:51.847Z,1019.23
2019-03-28T07:28:54.294Z,1019.22
2019-03-28T07:29:52.439Z,1019.22
2019-03-28T07:30:51.813Z,1019.23
2019-03-28T07:31:51.802Z,1019.18
2019-03-28T07:32:51.797Z,1019.18
2019-03-28T07:33:51.780Z,1019.21
2019-03-28T07:34:51.782Z,1019.23
2019-03-28T07:35:51.756Z,1019.22
2019-03-28T07:36:51.745Z,1019.24
2019-03-28T07:37:51.732Z,1019.24
2019-03-28T07:38:51.749Z,1019.23
2019-03-28T07:39:51.710Z,1019.23
2019-03-28T07:40:51.700Z,1019.22
2019-03-28T07:41:51.693Z,1019.23
2019-03-28T07:42:51.678Z,1019.22
2019-03-28T07:43:51.665Z,1019.23
2019-03-28T07:44:51.684Z,1019.26
2019-03-28T07:45:51.645Z,1019.20
2019-03-28T07:46:51.631Z,1019.21
2019-03-28T07:47:51.707Z,1019.21
2019-03-28T07:48:51.608Z,1019.19
2019-03-28T07:49:51.598Z,1019.22
2019-03-28T07:50:51.612Z,1019.17
2019-03-28T07:51:51.575Z,1019.20
2019-03-28T07:52:51.562Z,1019.17
2019-03-28T07:53:51.553Z,1019.19
2019-03-28T07:54:51.540Z,1019.20
2019-03-28T07:55:51.533Z,1019.20
2019-03-28T07:56:51.545Z,1019.15
2019-03-28T07:57:51.507Z,1019.18
2019-03-28T07:58:51.497Z,1019.25
2019-03-28T08:00:03.651Z,1019.18
2019-03-28T08:00:52.472Z,1019.27
2019-03-28T08:01:51.460Z,1019.20
2019-03-28T08:02:51.476Z,1019.27
2019-03-28T08:03:51.441Z,1019.28
2019-03-28T08:04:51.428Z,1019.21
2019-03-28T08:05:51.415Z,1019.25
2019-03-28T08:06:51.917Z,1019.22
2019-03-28T08:07:51.393Z,1019.22
2019-03-28T08:08:51.415Z,1019.25
2019-03-28T08:09:51.370Z,1019.24
2019-03-28T08:10:51.359Z,1019.24
2019-03-28T08:11:51.347Z,1019.20
2019-03-28T08:12:51.336Z,1019.28
2019-03-28T08:13:51.324Z,1019.26
2019-03-28T08:14:51.339Z,1019.29
2019-03-28T08:15:51.300Z,1019.30
2019-03-28T08:16:51.293Z,1019.28
2019-03-28T08:17:51.279Z,1019.28
2019-03-28T08:18:51.266Z,1019.24
2019-03-28T08:19:51.258Z,1019.25
2019-03-28T08:20:51.264Z,1019.25
2019-03-28T08:21:51.232Z,1019.23
2019-03-28T08:22:51.223Z,1019.23
2019-03-28T08:23:51.209Z,1019.24
2019-03-28T08:24:51.199Z,1019.24
2019-03-28T08:25:51.217Z,1019.27
2019-03-28T08:26:51.181Z,1019.25
2019-03-28T08:27:51.170Z,1019.24
2019-03-28T08:28:51.154Z,1019.26
2019-03-28T08:29:51.142Z,1019.29
2019-03-28T08:30:51.130Z,1019.25
2019-03-28T08:31:51.149Z,1019.25
2019-03-28T08:32:51.108Z,1019.29
2019-03-28T08:33:51.129Z,1019.29
2019-03-28T08:34:51.085Z,1019.36
2019-03-28T08:35:51.075Z,1019.28
2019-03-28T08:36:51.064Z,1019.30
2019-03-28T08:37:51.078Z,1019.34
2019-03-28T08:38:51.041Z,1019.37
2019-03-28T08:39:51.035Z,1019.34
2019-03-28T08:40:51.635Z,1019.33
2019-03-28T08:41:51.008Z,1019.26
2019-03-28T08:42:50.994Z,1019.28
2019-03-28T08:43:51.003Z,1019.28
2019-03-28T08:44:50.971Z,1019.27
2019-03-28T08:45:50.962Z,1019.32
2019-03-28T08:46:50.954Z,1019.33
2019-03-28T08:47:50.938Z,1019.30
2019-03-28T08:48:50.953Z,1019.37
2019-03-28T08:49:50.914Z,1019.32
2019-03-28T08:50:50.905Z,1019.38
2019-03-28T08:51:50.891Z,1019.39
2019-03-28T08:52:50.881Z,1019.33
2019-03-28T08:53:50.871Z,1019.32
2019-03-28T08:54:50.889Z,1019.39
2019-03-28T08:55:50.848Z,1019.36
2019-03-28T08:56:50.838Z,1019.42
2019-03-28T08:57:50.824Z,1019.41
2019-03-28T08:58:50.813Z,1019.40
2019-03-28T08:59:50.803Z,1019.46
2019-03-28T09:00:52.658Z,1019.47
2019-03-28T09:01:50.781Z,1019.39
2019-03-28T09:02:50.768Z,1019.45
2019-03-28T09:03:50.760Z,1019.39
2019-03-28T09:04:50.748Z,1019.44
2019-03-28T09:05:50.733Z,1019.38
2019-03-28T09:06:50.743Z,1019.43
2019-03-28T09:07:50.711Z,1019.45
2019-03-28T09:08:50.716Z,1019.43
2019-03-28T09:09:50.693Z,1019.40
2019-03-28T09:10:50.677Z,1019.46
2019-03-28T09:11:50.698Z,1019.42
2019-03-28T09:12:50.657Z,1019.36
2019-03-28T09:13:50.643Z,1019.38
2019-03-28T09:14:50.637Z,1019.38
2019-03-28T09:15:50.631Z,1019.44
2019-03-28T09:16:50.610Z,1019.33
2019-03-28T09:17:50.619Z,1019.37
2019-03-28T09:18:50.591Z,1019.38
2019-03-28T09:19:50.579Z,1019.31
2019-03-28T09:20:50.563Z,1019.35
2019-03-28T09:21:50.554Z,1019.41
2019-03-28T09:22:50.573Z,1019.38
2019-03-28T09:23:50.531Z,1019.45
2019-03-28T09:24:50.518Z,1019.40
2019-03-28T09:25:50.508Z,1019.43
2019-03-28T09:26:50.497Z,1019.38
2019-03-28T09:27:51.740Z,1019.37
2019-03-28T09:28:50.497Z,1019.40
2019-03-28T09:29:50.463Z,1019.40
2019-03-28T09:30:50.458Z,1019.41
2019-03-28T09:31:50.441Z,1019.43
2019-03-28T09:32:50.428Z,1019.40
2019-03-28T09:33:50.445Z,1019.42
2019-03-28T09:34:50.406Z,1019.39
2019-03-28T09:35:50.533Z,1019.44
2019-03-28T09:36:50.387Z,1019.37
2019-03-28T09:37:50.374Z,1019.41
2019-03-28T09:38:50.365Z,1019.41
2019-03-28T09:39:50.380Z,1019.37
2019-03-28T09:40:50.340Z,1019.37
2019-03-28T09:41:50.329Z,1019.40
2019-03-28T09:42:50.315Z,1019.37
2019-03-28T09:43:55.697Z,1019.44
2019-03-28T09:44:51.320Z,1019.33
2019-03-28T09:45:50.281Z,1019.37
2019-03-28T09:46:50.270Z,1019.38
2019-03-28T09:47:50.260Z,1019.37
2019-03-28T09:48:50.246Z,1019.37
2019-03-28T09:49:50.236Z,1019.35
2019-03-28T09:51:00.342Z,1019.36
2019-03-28T09:51:58.691Z,1019.34
2019-03-28T09:53:00.653Z,1019.40
2019-03-28T09:53:58.267Z,1019.38
2019-03-28T09:54:59.806Z,1019.37
2019-03-28T09:55:58.344Z,1019.47
2019-03-28T09:56:57.759Z,1019.46
2019-03-28T09:57:58.423Z,1019.47
2019-03-28T09:58:50.139Z,1019.46
2019-03-28T09:59:50.125Z,1019.44
2019-03-28T10:01:02.033Z,1019.48
2019-03-28T10:01:51.100Z,1019.47
2019-03-28T10:02:50.117Z,1019.47
2019-03-28T10:03:50.077Z,1019.47
2019-03-28T10:04:50.072Z,1019.48
2019-03-28T10:05:50.058Z,1019.45
2019-03-28T10:06:50.043Z,1019.44
2019-03-28T10:07:50.032Z,1019.46
2019-03-28T10:08:50.053Z,1019.43
2019-03-28T10:09:50.194Z,1019.40
2019-03-28T10:10:50.004Z,1019.35
2019-03-28T10:11:49.988Z,1019.39
2019-03-28T10:12:49.980Z,1019.39
2019-03-28T10:13:49.967Z,1019.39
2019-03-28T10:14:49.981Z,1019.35
2019-03-28T10:15:49.942Z,1019.38
2019-03-28T10:16:49.930Z,1019.34
2019-03-28T10:17:49.919Z,1019.32
2019-03-28T10:18:49.916Z,1019.35
2019-03-28T10:19:49.895Z,1019.29
2019-03-28T10:20:49.911Z,1019.29
2019-03-28T10:21:49.872Z,1019.30
2019-03-28T10:22:49.861Z,1019.28
2019-03-28T10:23:49.855Z,1019.29
2019-03-28T10:24:49.840Z,1019.26
2019-03-28T10:25:49.826Z,1019.26
2019-03-28T10:26:49.848Z,1019.24
2019-03-28T10:27:49.804Z,1019.30
2019-03-28T10:28:49.796Z,1019.24
2019-03-28T10:29:49.784Z,1019.24
2019-03-28T10:30:49.771Z,1019.26
2019-03-28T10:31:49.760Z,1019.18
2019-03-28T10:32:49.775Z,1019.23
2019-03-28T10:33:50.497Z,1019.18
2019-03-28T10:34:49.728Z,1019.25
2019-03-28T10:35:49.715Z,1019.18
2019-03-28T10:36:49.710Z,1019.15
2019-03-28T10:37:49.692Z,1019.17
2019-03-28T10:38:49.699Z,1019.19
2019-03-28T10:39:49.669Z,1019.13
2019-03-28T10:40:49.658Z,1019.20
2019-03-28T10:41:49.656Z,1019.17
2019-03-28T10:42:49.637Z,1019.20
2019-03-28T10:43:49.650Z,1019.19
2019-03-28T10:44:49.613Z,1019.25
2019-03-28T10:45:49.609Z,1019.26
2019-03-28T10:46:49.590Z,1019.27
2019-03-28T10:47:49.578Z,1019.28
2019-03-28T10:48:49.602Z,1019.28
2019-03-28T10:49:49.585Z,1019.30
2019-03-28T10:50:49.543Z,1019.28
2019-03-28T10:51:49.533Z,1019.31
2019-03-28T10:52:49.523Z,1019.24
2019-03-28T10:53:49.510Z,1019.23
2019-03-28T10:54:50.498Z,1019.25
2019-03-28T10:55:49.517Z,1019.24
2019-03-28T10:56:53.364Z,1019.26
2019-03-28T10:57:50.466Z,1019.23
2019-03-28T10:58:50.588Z,1019.18
2019-03-28T10:59:49.443Z,1019.29
2019-03-28T11:00:49.433Z,1019.28
2019-03-28T11:01:50.899Z,1019.29
2019-03-28T11:02:49.468Z,1019.34
2019-03-28T11:03:49.398Z,1019.34
2019-03-28T11:04:49.388Z,1019.33
2019-03-28T11:05:49.374Z,1019.30
2019-03-28T11:06:49.364Z,1019.34
2019-03-28T11:07:49.920Z,1019.29
2019-03-28T11:08:49.340Z,1019.32
2019-03-28T11:09:49.333Z,1019.30
2019-03-28T11:10:49.319Z,1019.34
2019-03-28T11:11:49.305Z,1019.37
2019-03-28T11:12:49.295Z,1019.35
2019-03-28T11:13:49.313Z,1019.33
2019-03-28T11:14:49.274Z,1019.30
2019-03-28T11:15:49.261Z,1019.28
2019-03-28T11:16:49.250Z,1019.28
2019-03-28T11:17:49.238Z,1019.31
2019-03-28T11:18:49.230Z,1019.31
2019-03-28T11:19:49.244Z,1019.29
2019-03-28T11:20:49.210Z,1019.33
2019-03-28T11:21:49.201Z,1019.28
2019-03-28T11:22:49.185Z,1019.25
2019-03-28T11:23:49.170Z,1019.21
2019-03-28T11:24:49.162Z,1019.20
2019-03-28T11:25:49.175Z,1019.25
2019-03-28T11:26:49.144Z,1019.21
2019-03-28T11:27:49.663Z,1019.20
2019-03-28T11:28:49.115Z,1019.20
2019-03-28T11:29:49.103Z,1019.20
2019-03-28T11:30:49.092Z,1019.16
2019-03-28T11:31:52.182Z,1019.15
2019-03-28T11:32:49.068Z,1019.20
2019-03-28T11:33:49.065Z,1019.15
2019-03-28T11:34:49.046Z,1019.19
2019-03-28T11:35:49.035Z,1019.18
2019-03-28T11:36:49.023Z,1019.20
2019-03-28T11:37:49.033Z,1019.22
2019-03-28T11:38:49.002Z,1019.17
2019-03-28T11:39:49.001Z,1019.21
2019-03-28T11:40:48.981Z,1019.24
2019-03-28T11:41:48.968Z,1019.21
2019-03-28T11:42:51.851Z,1019.23
2019-03-28T11:43:48.974Z,1019.31
2019-03-28T11:44:48.933Z,1019.29
2019-03-28T11:45:48.923Z,1019.31
2019-03-28T11:46:48.913Z,1019.31
2019-03-28T11:47:48.900Z,1019.30
2019-03-28T11:48:48.917Z,1019.33
2019-03-28T11:49:48.888Z,1019.29
2019-03-28T11:50:48.867Z,1019.33
2019-03-28T11:51:48.857Z,1019.31
2019-03-28T11:52:48.843Z,1019.30
2019-03-28T11:53:48.832Z,1019.29
2019-03-28T11:54:48.855Z,1019.33
2019-03-28T11:55:49.090Z,1019.30
2019-03-28T11:56:48.798Z,1019.27
2019-03-28T11:57:48.789Z,1019.28
2019-03-28T11:58:48.777Z,1019.26
2019-03-28T11:59:48.764Z,1019.26
2019-03-28T12:00:48.769Z,1019.23
2019-03-28T12:01:59.399Z,1019.24
2019-03-28T12:02:49.745Z,1019.26
2019-03-28T12:03:48.719Z,1019.26
2019-03-28T12:04:48.727Z,1019.24
2019-03-28T12:05:48.723Z,1019.22